Time,TemperatureF,DewpointF,PressureIn,WindDirection,WindDirectionDegrees,WindSpeedMPH,WindSpeedGustMPH,Humidity,HourlyPrecipIn,Conditions,Clouds,dailyrainin,SoftwareType,DateUTC
2013-05-18 00:07:00,49.8,40.8,29.82,NNE,22,0.0,0.0,71,0.00,,,0.00,WeatherCatV1.10B1784,2013-05-17 23:07:00,
2013-05-18 00:17:00,49.8,41.1,29.81,North,0,3.6,3.6,72,0.00,,,0.00,WeatherCatV1.10B1784,2013-05-17 23:17:00,
2013-05-18 00:27:00,49.8,41.1,29.82,WSW,247,0.0,4.2,72,0.00,,,0.00,WeatherCatV1.10B1784,2013-05-17 23:27:00,
2013-05-18 00:37:00,49.6,41.0,29.81,East,90,0.9,2.2,72,0.00,,,0.00,WeatherCatV1.10B1784,2013-05-17 23:37:00,
2013-05-18 00:47:00,49.6,41.3,29.81,North,0,0.0,1.8,73,0.00,,,0.00,WeatherCatV1.10B1784,2013-05-17 23:47:00,
2013-05-18 00:57:00,49.6,41.6,29.81,SW,225,1.3,2.2,74,0.00,,,0.00,WeatherCatV1.10B1784,2013-05-17 23:57:00,
2013-05-18 01:07:00,49.6,41.6,29.81,WSW,247,0.0,0.0,74,0.00,,,0.00,WeatherCatV1.10B1784,2013-05-18 00:07:00,
2013-05-18 01:17:00,49.3,41.3,29.81,SW,225,1.3,4.0,74,0.00,,,0.00,WeatherCatV1.10B1784,2013-05-18 00:17:00,
2013-05-18 01:27:00,49.3,41.3,29.80,East,90,0.0,2.0,74,0.00,,,0.00,WeatherCatV1.10B1784,2013-05-18 00:27:00,
2013-05-18 01:37:00,49.1,41.5,29.79,North,0,0.9,2.0,75,0.00,,,0.00,WeatherCatV1.10B1784,2013-05-18 00:37:00,
2013-05-18 01:47:00,48.7,41.4,29.80,SE,135,0.0,1.1,76,0.00,,,0.00,WeatherCatV1.10B1784,2013-05-18 00:47:00,
2013-05-18 01:57:00,48.4,41.4,29.80,East,90,0.0,1.3,77,0.00,,,0.00,WeatherCatV1.10B1784,2013-05-18 00:57:00,
2013-05-18 02:07:00,48.0,41.4,29.81,ESE,112,0.0,1.3,78,0.00,,,0.00,WeatherCatV1.10B1784,2013-05-18 01:07:00,
2013-05-18 02:17:00,48.0,41.8,29.80,East,90,0.0,0.0,79,0.00,,,0.00,WeatherCatV1.10B1784,2013-05-18 01:17:00,
2013-05-18 02:27:00,47.8,41.6,29.80,WNW,292,1.1,3.8,79,0.00,,,0.00,WeatherCatV1.10B1784,2013-05-18 01:27:00,
2013-05-18 02:37:00,47.1,41.9,29.80,North,0,2.0,4.9,82,0.00,,,0.00,WeatherCatV1.10B1784,2013-05-18 01:37:00,
2013-05-18 02:47:00,46.8,42.2,29.80,WSW,247,0.0,2.7,84,0.00,,,0.00,WeatherCatV1.10B1784,2013-05-18 01:47:00,
2013-05-18 02:57:00,46.2,42.3,29.80,SW,225,0.0,1.6,86,0.02,,,0.02,WeatherCatV1.10B1784,2013-05-18 01:57:00,
2013-05-18 03:07:00,46.0,42.4,29.79,SW,225,0.0,0.9,87,0.04,,,0.04,WeatherCatV1.10B1784,2013-05-18 02:07:00,
2013-05-18 03:17:00,46.0,42.7,29.78,SW,225,0.0,0.0,88,0.06,,,0.06,WeatherCatV1.10B1784,2013-05-18 02:17:00,
2013-05-18 03:27:00,45.7,42.4,29.78,SE,135,0.0,0.0,88,0.06,,,0.06,WeatherCatV1.10B1784,2013-05-18 02:27:00,
2013-05-18 03:37:00,45.7,42.7,29.78,South,180,0.0,1.3,89,0.06,,,0.06,WeatherCatV1.10B1784,2013-05-18 02:37:00,
2013-05-18 03:47:00,45.5,42.5,29.78,South,180,0.0,0.7,89,0.08,,,0.08,WeatherCatV1.10B1784,2013-05-18 02:47:00,
2013-05-18 03:57:00,45.5,42.8,29.78,South,180,0.0,0.9,90,0.04,,,0.08,WeatherCatV1.10B1784,2013-05-18 02:57:00,
2013-05-18 04:07:00,45.5,42.8,29.77,South,180,0.0,0.0,90,0.04,,,0.08,WeatherCatV1.10B1784,2013-05-18 03:07:00,
2013-05-18 04:17:00,45.5,42.8,29.78,SW,225,0.0,0.0,90,0.02,,,0.08,WeatherCatV1.10B1784,2013-05-18 03:17:00,
2013-05-18 04:27:00,45.5,43.1,29.77,SW,225,0.0,0.0,91,0.02,,,0.08,WeatherCatV1.10B1784,2013-05-18 03:27:00,
2013-05-18 04:37:00,45.5,43.1,29.77,SW,225,0.0,0.0,91,0.02,,,0.08,WeatherCatV1.10B1784,2013-05-18 03:37:00,
2013-05-18 04:47:00,45.5,43.1,29.77,SW,225,1.1,1.1,91,0.00,,,0.08,WeatherCatV1.10B1784,2013-05-18 03:47:00,
2013-05-18 04:57:00,45.7,43.5,29.77,South,180,0.0,0.0,92,0.00,,,0.08,WeatherCatV1.10B1784,2013-05-18 03:57:00,
2013-05-18 05:07:00,45.7,43.5,29.78,South,180,0.0,0.0,92,0.00,,,0.08,WeatherCatV1.10B1784,2013-05-18 04:07:00,
2013-05-18 05:17:00,45.7,43.8,29.77,SE,135,0.0,0.9,93,0.00,,,0.08,WeatherCatV1.10B1784,2013-05-18 04:17:00,
2013-05-18 05:27:00,45.7,43.8,29.77,SE,135,0.0,0.9,93,0.02,,,0.10,WeatherCatV1.10B1784,2013-05-18 04:27:00,
2013-05-18 05:37:00,45.7,43.8,29.77,SE,135,0.0,1.6,93,0.04,,,0.12,WeatherCatV1.10B1784,2013-05-18 04:37:00,
2013-05-18 05:47:00,45.9,44.0,29.77,SSE,157,1.1,1.1,93,0.04,,,0.12,WeatherCatV1.10B1784,2013-05-18 04:47:00,
2013-05-18 05:57:00,46.0,44.2,29.77,North,0,0.0,1.1,93,0.04,,,0.12,WeatherCatV1.10B1784,2013-05-18 04:57:00,
2013-05-18 06:07:00,46.0,44.2,29.77,NNW,337,0.0,0.0,93,0.04,,,0.12,WeatherCatV1.10B1784,2013-05-18 05:07:00,
2013-05-18 06:17:00,46.0,44.2,29.77,North,0,0.0,0.0,93,0.04,,,0.12,WeatherCatV1.10B1784,2013-05-18 05:17:00,
2013-05-18 06:27:00,46.2,44.3,29.77,ESE,112,0.0,0.9,93,0.02,,,0.12,WeatherCatV1.10B1784,2013-05-18 05:27:00,
2013-05-18 06:37:00,46.2,44.3,29.77,SSE,157,0.0,0.0,93,0.00,,,0.12,WeatherCatV1.10B1784,2013-05-18 05:37:00,
2013-05-18 06:47:00,46.2,44.3,29.77,SSE,157,0.0,0.0,93,0.00,,,0.12,WeatherCatV1.10B1784,2013-05-18 05:47:00,
2013-05-18 06:57:00,46.2,44.3,29.77,SSW,202,0.0,0.9,93,0.02,,,0.14,WeatherCatV1.10B1784,2013-05-18 05:57:00,
2013-05-18 07:07:00,46.2,44.3,29.77,South,180,0.0,0.0,93,0.02,,,0.14,WeatherCatV1.10B1784,2013-05-18 06:07:00,
2013-05-18 07:17:00,46.6,45.0,29.77,SSE,157,0.9,0.9,94,0.02,,,0.14,WeatherCatV1.10B1784,2013-05-18 06:17:00,
2013-05-18 07:27:00,46.8,45.1,29.76,West,270,0.0,1.6,94,0.02,,,0.14,WeatherCatV1.10B1784,2013-05-18 06:27:00,
2013-05-18 07:37:00,47.1,45.5,29.77,SSW,202,0.0,0.9,94,0.02,,,0.14,WeatherCatV1.10B1784,2013-05-18 06:37:00,
2013-05-18 07:47:00,47.5,45.9,29.76,SSE,157,0.0,1.8,94,0.02,,,0.14,WeatherCatV1.10B1784,2013-05-18 06:47:00,
2013-05-18 07:57:00,47.8,46.2,29.76,SSE,157,2.2,2.2,94,0.00,,,0.14,WeatherCatV1.10B1784,2013-05-18 06:57:00,
2013-05-18 08:07:00,48.0,46.7,29.75,ENE,67,1.3,4.5,95,0.00,,,0.14,WeatherCatV1.10B1784,2013-05-18 07:07:00,
2013-05-18 08:17:00,48.4,46.7,29.75,North,0,0.0,2.5,94,0.00,,,0.14,WeatherCatV1.10B1784,2013-05-18 07:17:00,
2013-05-18 08:27:00,48.7,47.4,29.75,North,0,0.0,4.2,95,0.00,,,0.14,WeatherCatV1.10B1784,2013-05-18 07:27:00,
2013-05-18 08:37:00,48.9,47.2,29.75,North,0,0.7,2.2,94,0.00,,,0.14,WeatherCatV1.10B1784,2013-05-18 07:37:00,
2013-05-18 08:47:00,49.3,47.6,29.75,SSE,157,0.0,5.1,94,0.00,,,0.14,WeatherCatV1.10B1784,2013-05-18 07:47:00,
2013-05-18 08:57:00,49.3,47.6,29.75,SSE,157,0.0,4.2,94,0.00,,,0.14,WeatherCatV1.10B1784,2013-05-18 07:57:00,
2013-05-18 09:07:00,49.6,47.9,29.74,SE,135,0.0,1.8,94,0.00,,,0.14,WeatherCatV1.10B1784,2013-05-18 08:07:00,
2013-05-18 09:17:00,49.6,47.9,29.74,SE,135,0.0,0.0,94,0.00,,,0.14,WeatherCatV1.10B1784,2013-05-18 08:17:00,
2013-05-18 09:27:00,49.6,47.9,29.73,South,180,1.6,2.0,94,0.00,,,0.14,WeatherCatV1.10B1784,2013-05-18 08:27:00,
2013-05-18 09:37:00,50.2,48.7,29.73,SSE,157,0.0,2.7,95,0.00,,,0.14,WeatherCatV1.10B1784,2013-05-18 08:37:00,
2013-05-18 09:47:00,50.2,48.5,29.74,SSE,157,1.1,2.5,94,0.00,,,0.14,WeatherCatV1.10B1784,2013-05-18 08:47:00,
2013-05-18 09:57:00,50.4,48.6,29.74,NNE,22,1.3,9.6,94,0.00,,,0.14,WeatherCatV1.10B1784,2013-05-18 08:57:00,
2013-05-18 10:07:00,50.7,49.0,29.73,NNE,22,1.6,6.7,94,0.00,,,0.14,WeatherCatV1.10B1784,2013-05-18 09:07:00,
2013-05-18 10:17:00,50.9,49.2,29.73,West,270,2.5,6.7,94,0.00,,,0.14,WeatherCatV1.10B1784,2013-05-18 09:17:00,
2013-05-18 10:27:00,51.1,49.1,29.73,NNE,22,3.4,7.4,93,0.00,,,0.14,WeatherCatV1.10B1784,2013-05-18 09:27:00,
2013-05-18 10:37:00,51.1,49.1,29.72,NNW,337,5.1,8.7,93,0.00,,,0.14,WeatherCatV1.10B1784,2013-05-18 09:37:00,
2013-05-18 10:47:00,51.1,49.1,29.71,North,0,5.1,9.8,93,0.00,,,0.14,WeatherCatV1.10B1784,2013-05-18 09:47:00,
2013-05-18 10:57:00,51.1,49.1,29.70,NNE,22,6.3,6.3,93,0.02,,,0.14,WeatherCatV1.10B1784,2013-05-18 09:57:00,
2013-05-18 11:07:00,51.1,48.8,29.70,North,0,7.6,7.6,92,0.02,,,0.16,WeatherCatV1.10B1784,2013-05-18 10:07:00,
2013-05-18 11:17:00,51.4,49.1,29.69,East,90,15.2,15.2,92,0.02,,,0.16,WeatherCatV1.10B1784,2013-05-18 10:17:00,
2013-05-18 11:27:00,51.1,48.8,29.69,WNW,292,6.9,13.9,92,0.02,,,0.16,WeatherCatV1.10B1784,2013-05-18 10:27:00,
2013-05-18 11:37:00,51.1,48.8,29.70,NNW,337,3.8,7.4,92,0.04,,,0.18,WeatherCatV1.10B1784,2013-05-18 10:37:00,
2013-05-18 11:47:00,50.9,48.9,29.70,NE,45,0.7,12.7,93,0.06,,,0.20,WeatherCatV1.10B1784,2013-05-18 10:47:00,
2013-05-18 11:57:00,51.1,49.1,29.70,NNE,22,5.1,5.1,93,0.04,,,0.20,WeatherCatV1.10B1784,2013-05-18 10:57:00,
2013-05-18 12:07:00,51.1,48.9,29.70,NNW,337,0.0,8.9,93,0.04,,,0.20,WeatherCatV1.10B1784,2013-05-18 11:07:00,
2013-05-18 12:17:00,51.3,49.0,29.69,NNW,337,1.1,7.6,92,0.04,,,0.20,WeatherCatV1.10B1784,2013-05-18 11:17:00,
2013-05-18 12:27:00,51.4,49.1,29.69,North,0,4.0,10.7,92,0.04,,,0.20,WeatherCatV1.10B1784,2013-05-18 11:27:00,
2013-05-18 12:37:00,51.6,49.3,29.69,North,0,4.7,4.9,92,0.02,,,0.20,WeatherCatV1.10B1784,2013-05-18 11:37:00,
2013-05-18 12:47:00,51.3,49.0,29.70,NNW,337,0.0,1.8,92,0.00,,,0.20,WeatherCatV1.10B1784,2013-05-18 11:47:00,
2013-05-18 12:57:00,50.7,48.4,29.70,East,90,3.8,6.0,92,0.00,,,0.20,WeatherCatV1.10B1784,2013-05-18 11:57:00,
2013-05-18 13:07:00,50.7,48.7,29.69,NNW,337,3.4,7.8,93,0.00,,,0.20,WeatherCatV1.10B1784,2013-05-18 12:07:00,
2013-05-18 13:17:00,50.5,48.5,29.70,WNW,292,2.9,3.8,93,0.00,,,0.20,WeatherCatV1.10B1784,2013-05-18 12:17:00,
2013-05-18 13:27:00,50.5,48.5,29.71,North,0,3.4,3.4,93,0.00,,,0.20,WeatherCatV1.10B1784,2013-05-18 12:27:00,
2013-05-18 13:37:00,50.5,48.5,29.71,NNW,337,0.0,5.8,93,0.00,,,0.20,WeatherCatV1.10B1784,2013-05-18 12:37:00,
2013-05-18 13:47:00,50.4,48.3,29.71,NNW,337,1.6,4.7,93,0.02,,,0.20,WeatherCatV1.10B1784,2013-05-18 12:47:00,
2013-05-18 13:57:00,50.2,48.2,29.72,South,180,4.2,4.2,93,0.02,,,0.22,WeatherCatV1.10B1784,2013-05-18 12:57:00,
2013-05-18 14:07:00,50.2,48.2,29.71,NNW,337,0.0,3.8,93,0.02,,,0.22,WeatherCatV1.10B1784,2013-05-18 13:07:00,
2013-05-18 14:17:00,50.5,48.5,29.71,South,180,0.0,4.5,93,0.02,,,0.22,WeatherCatV1.10B1784,2013-05-18 13:17:00,
2013-05-18 14:27:00,50.5,48.5,29.72,WNW,292,0.0,2.9,93,0.02,,,0.22,WeatherCatV1.10B1784,2013-05-18 13:27:00,
2013-05-18 14:37:00,50.2,48.2,29.71,NNW,337,2.7,6.5,93,0.02,,,0.22,WeatherCatV1.10B1784,2013-05-18 13:37:00,
2013-05-18 14:47:00,49.8,47.8,29.71,SSW,202,2.5,3.8,93,0.04,,,0.26,WeatherCatV1.10B1784,2013-05-18 13:47:00,
2013-05-18 14:57:00,49.6,47.6,29.71,North,0,0.0,0.0,93,0.04,,,0.26,WeatherCatV1.10B1784,2013-05-18 13:57:00,
2013-05-18 15:07:00,49.6,47.6,29.70,SSE,157,0.0,2.7,93,0.04,,,0.26,WeatherCatV1.10B1784,2013-05-18 14:07:00,
2013-05-18 15:17:00,49.8,47.8,29.70,North,0,0.0,3.4,93,0.04,,,0.26,WeatherCatV1.10B1784,2013-05-18 14:17:00,
2013-05-18 15:27:00,49.8,47.8,29.70,ESE,112,0.0,0.0,93,0.04,,,0.26,WeatherCatV1.10B1784,2013-05-18 14:27:00,
2013-05-18 15:37:00,49.8,48.1,29.70,WNW,292,0.0,1.1,94,0.04,,,0.26,WeatherCatV1.10B1784,2013-05-18 14:37:00,
2013-05-18 15:47:00,50.2,48.5,29.69,SSE,157,0.0,1.1,94,0.00,,,0.26,WeatherCatV1.10B1784,2013-05-18 14:47:00,
2013-05-18 15:57:00,50.2,48.5,29.69,West,270,0.0,1.8,94,0.00,,,0.26,WeatherCatV1.10B1784,2013-05-18 14:57:00,
2013-05-18 16:07:00,50.2,48.5,29.70,South,180,1.1,1.6,94,0.00,,,0.26,WeatherCatV1.10B1784,2013-05-18 15:07:00,
2013-05-18 16:17:00,50.2,48.5,29.70,South,180,1.8,3.6,94,0.00,,,0.26,WeatherCatV1.10B1784,2013-05-18 15:17:00,
2013-05-18 16:27:00,49.8,48.1,29.71,SSE,157,0.0,3.6,94,0.00,,,0.26,WeatherCatV1.10B1784,2013-05-18 15:27:00,
2013-05-18 16:37:00,49.6,47.9,29.72,WSW,247,1.1,5.6,94,0.00,,,0.26,WeatherCatV1.10B1784,2013-05-18 15:37:00,
2013-05-18 16:47:00,49.6,47.9,29.70,WNW,292,0.0,4.0,94,0.00,,,0.26,WeatherCatV1.10B1784,2013-05-18 15:47:00,
2013-05-18 16:57:00,49.3,47.6,29.70,SSW,202,6.7,6.7,94,0.00,,,0.26,WeatherCatV1.10B1784,2013-05-18 15:57:00,
2013-05-18 17:07:00,49.6,47.9,29.70,SSW,202,0.0,2.7,94,0.00,,,0.26,WeatherCatV1.10B1784,2013-05-18 16:07:00,
2013-05-18 17:17:00,49.6,47.9,29.71,West,270,0.0,4.5,94,0.00,,,0.26,WeatherCatV1.10B1784,2013-05-18 16:17:00,
2013-05-18 17:27:00,49.8,48.1,29.70,SW,225,3.8,5.6,94,0.00,,,0.26,WeatherCatV1.10B1784,2013-05-18 16:27:00,
2013-05-18 17:37:00,49.6,47.9,29.70,SSE,157,2.7,2.7,94,0.00,,,0.26,WeatherCatV1.10B1784,2013-05-18 16:37:00,
2013-05-18 17:47:00,49.6,47.9,29.71,North,0,0.0,0.0,94,0.00,,,0.26,WeatherCatV1.10B1784,2013-05-18 16:47:00,
2013-05-18 17:57:00,49.3,47.8,29.71,SSW,202,1.8,4.9,94,0.00,,,0.26,WeatherCatV1.10B1784,2013-05-18 16:57:00,
2013-05-18 18:07:00,49.3,47.6,29.71,SSE,157,2.9,6.0,94,0.00,,,0.26,WeatherCatV1.10B1784,2013-05-18 17:07:00,
2013-05-18 18:17:00,49.3,47.6,29.71,SSE,157,1.6,3.1,94,0.02,,,0.28,WeatherCatV1.10B1784,2013-05-18 17:17:00,
2013-05-18 18:27:00,49.1,47.4,29.70,South,180,0.0,0.7,94,0.02,,,0.28,WeatherCatV1.10B1784,2013-05-18 17:27:00,
2013-05-18 18:37:00,49.1,47.4,29.70,SSE,157,0.0,0.0,94,0.02,,,0.28,WeatherCatV1.10B1784,2013-05-18 17:37:00,
2013-05-18 18:47:00,49.1,47.4,29.70,SSE,157,0.0,0.9,94,0.02,,,0.28,WeatherCatV1.10B1784,2013-05-18 17:47:00,
2013-05-18 18:57:00,49.1,47.4,29.70,South,180,0.0,0.0,94,0.02,,,0.28,WeatherCatV1.10B1784,2013-05-18 17:57:00,
2013-05-18 19:07:00,48.9,47.2,29.71,North,0,2.0,2.0,94,0.02,,,0.28,WeatherCatV1.10B1784,2013-05-18 18:07:00,
2013-05-18 19:17:00,48.7,47.1,29.72,North,0,0.0,0.0,94,0.00,,,0.28,WeatherCatV1.10B1784,2013-05-18 18:17:00,
2013-05-18 19:27:00,48.9,47.2,29.72,South,180,0.0,1.8,94,0.00,,,0.28,WeatherCatV1.10B1784,2013-05-18 18:27:00,
2013-05-18 19:37:00,49.1,47.4,29.72,SSE,157,0.0,1.6,94,0.00,,,0.28,WeatherCatV1.10B1784,2013-05-18 18:37:00,
2013-05-18 19:47:00,48.7,47.1,29.73,SSE,157,0.0,3.4,94,0.00,,,0.28,WeatherCatV1.10B1784,2013-05-18 18:47:00,
2013-05-18 19:57:00,48.6,46.9,29.73,SSE,157,0.0,1.8,94,0.00,,,0.28,WeatherCatV1.10B1784,2013-05-18 18:57:00,
2013-05-18 20:07:00,48.4,46.7,29.73,South,180,0.7,2.2,94,0.00,,,0.28,WeatherCatV1.10B1784,2013-05-18 19:07:00,
2013-05-18 20:17:00,48.4,46.7,29.73,SSW,202,0.0,2.7,94,0.00,,,0.28,WeatherCatV1.10B1784,2013-05-18 19:17:00,
2013-05-18 20:27:00,48.4,46.7,29.73,SSW,202,1.3,2.0,94,0.00,,,0.28,WeatherCatV1.10B1784,2013-05-18 19:27:00,
2013-05-18 20:37:00,48.2,46.6,29.73,South,180,0.0,1.3,94,0.00,,,0.28,WeatherCatV1.10B1784,2013-05-18 19:37:00,
2013-05-18 20:47:00,48.2,46.6,29.74,South,180,0.0,0.0,94,0.00,,,0.28,WeatherCatV1.10B1784,2013-05-18 19:47:00,
2013-05-18 20:57:00,48.2,46.6,29.74,South,180,0.0,0.0,94,0.00,,,0.28,WeatherCatV1.10B1784,2013-05-18 19:57:00,
2013-05-18 21:07:00,48.2,46.6,29.74,South,180,0.0,0.0,94,0.00,,,0.28,WeatherCatV1.10B1784,2013-05-18 20:07:00,
2013-05-18 21:17:00,48.4,47.0,29.75,South,180,0.0,0.0,95,0.00,,,0.28,WeatherCatV1.10B1784,2013-05-18 20:17:00,
2013-05-18 21:27:00,48.4,47.0,29.75,South,180,0.0,0.0,95,0.00,,,0.28,WeatherCatV1.10B1784,2013-05-18 20:27:00,
2013-05-18 21:47:00,48.4,47.0,29.76,South,180,0.0,0.0,95,0.00,,,0.28,WeatherCatV1.10B1784,2013-05-18 20:47:00,
2013-05-18 21:57:00,48.4,47.0,29.76,SSW,202,0.0,0.0,95,0.00,,,0.28,WeatherCatV1.10B1784,2013-05-18 20:57:00,
2013-05-18 22:07:00,48.4,47.0,29.77,South,180,0.0,0.0,95,0.00,,,0.28,WeatherCatV1.10B1784,2013-05-18 21:07:00,
2013-05-18 22:17:00,48.4,47.0,29.77,South,180,0.0,0.0,95,0.00,,,0.28,WeatherCatV1.10B1784,2013-05-18 21:17:00,
2013-05-18 22:27:00,48.4,47.0,29.77,South,180,0.0,0.7,95,0.00,,,0.28,WeatherCatV1.10B1784,2013-05-18 21:27:00,
2013-05-18 22:37:00,48.4,47.0,29.77,South,180,0.0,0.0,95,0.00,,,0.28,WeatherCatV1.10B1784,2013-05-18 21:37:00,
2013-05-18 22:47:00,48.2,46.8,29.78,South,180,0.0,0.0,95,0.00,,,0.28,WeatherCatV1.10B1784,2013-05-18 21:47:00,
2013-05-18 22:57:00,48.2,46.8,29.78,South,180,0.0,0.0,95,0.00,,,0.28,WeatherCatV1.10B1784,2013-05-18 21:57:00,
2013-05-18 23:07:00,48.0,46.7,29.78,North,0,0.0,0.0,95,0.02,,,0.31,WeatherCatV1.10B1784,2013-05-18 22:07:00,
2013-05-18 23:17:00,48.0,46.7,29.78,NW,315,0.0,0.9,95,0.02,,,0.31,WeatherCatV1.10B1784,2013-05-18 22:17:00,
2013-05-18 23:27:00,48.0,46.7,29.78,NNW,337,0.0,0.0,95,0.02,,,0.31,WeatherCatV1.10B1784,2013-05-18 22:27:00,
2013-05-18 23:37:00,48.0,46.7,29.78,ESE,112,1.1,1.1,95,0.02,,,0.31,WeatherCatV1.10B1784,2013-05-18 22:37:00,
2013-05-18 23:47:00,48.0,46.7,29.79,SE,135,0.0,0.0,95,0.02,,,0.31,WeatherCatV1.10B1784,2013-05-18 22:47:00,
2013-05-18 23:57:00,47.8,46.5,29.79,North,0,0.0,0.0,95,0.00,,,0.31,WeatherCatV1.10B1784,2013-05-18 22:57:00,